• Join FlightAware (Why Join?)
  • Login
  • US Flag 
11:31AM EDT


 

Airport Tracker/Info


-or-


 

Live Flight TrackerFlight Track Log ✈ SKW5631 ✈ 07-Dec-2013 ✈ KSFO - KBUR

Flight Track Log - Related Links

Times and Time Zones

All times are in EST time to prevent confusion due to time zone crossing. See the SKW5631 flight status page for this flight to view local times or setup timezone preferences in your user account.

Time Position Orientation Groundspeed Altitude Reporting Facility
EST Latitude Longitude Course Direction KTS MPH feet Rate Location/Type
10:08PM 37.6483 -122.3694 156° South 158 182 1,900  Level Oakland Center
10:09PM 37.6894 -122.3978 331° Northwest 228 262 5,500 3,120 Climbing Oakland Center
10:10PM 37.2806 -121.9541 133° Southeast  Level Estimated
10:10PM 37.6328 -122.4306 205° Southwest 248 285 8,300  Level Oakland Center
10:11PM 37.1674 -121.8145 135° Southeast  Level Estimated
10:11PM 37.5450 -122.4161 173° South 324 373 11,200  Level Oakland Center
10:12PM 37.0541 -121.6754 138° Southeast  Level Estimated
10:12PM 37.4611 -122.3467 147° Southeast 372 428 12,900  Level Oakland Center
10:13PM 36.9093 -121.5943 156° South  Level FlightAware Approximate
10:13PM 37.3758 -122.2531 139° Southeast 405 466 15,300  Level Oakland Center
10:14PM 37.2864 -122.1572 140° Southeast 422 486 17,500 1,980 Climbing Oakland Center
10:15PM 37.1939 -122.0578 139° Southeast 437 503 19,400 1,620 Climbing Oakland Center
10:16PM 37.0986 -121.9528 139° Southeast 455 524 20,800 1,320 Climbing Oakland Center
10:17PM 36.9989 -121.8467 140° Southeast 470 541 22,100 1,140 Climbing Oakland Center
10:18PM 36.8908 -121.7397 142° Southeast 497 572 23,200 1,080 Climbing Oakland Center
10:19PM 36.7647 -121.6053 139° Southeast 512 589 24,400 1,260 Climbing Oakland Center
10:20PM 36.6572 -121.4883 139° Southeast 515 593 25,800 1,140 Climbing Oakland Center
10:21PM 36.5481 -121.3728 140° Southeast 517 595 26,800 540 Climbing Oakland Center
10:22PM 36.4378 -121.2558 140° Southeast 523 602 27,000 60 Climbing Oakland Center
10:23PM 36.3214 -121.1350 140° Southeast 543 625 27,000  Level Oakland Center
10:24PM 36.2067 -121.0136 139° Southeast 546 628 27,000  Level Oakland Center
10:25PM 36.0908 -120.8917 140° Southeast 548 631 27,000  Level Oakland Center
10:26PM 35.9775 -120.7692 139° Southeast 542 624 27,000  Level Oakland Center
10:27PM 35.8614 -120.6500 140° Southeast 542 624 27,000 -60 Level Oakland Center
10:28PM 35.7447 -120.5300 140° Southeast 545 627 26,900  Descending Oakland Center
10:29PM 35.6275 -120.4089 140° Southeast 549 632 27,000  Climbing Oakland Center
10:30PM 35.5081 -120.2872 140° Southeast 549 632 27,000  Level Oakland Center
10:31PM 35.3853 -120.1617 140° Southeast 554 638 27,000  Level Oakland Center
10:32PM 35.2639 -120.0397 141° Southeast 558 642 27,000  Level Oakland Center
10:33PM 35.1442 -119.9175 140° Southeast 557 641 27,000 -1,080 Level Oakland Center
10:34PM 35.0331 -119.7864 136° Southeast 555 639 24,900 -2,580 Descending Oakland Center
10:35PM 34.9344 -119.6519 132° Southeast 541 623 21,800 -3,000 Descending Oakland Center
10:36PM 34.8394 -119.5253 132° Southeast 518 596 18,800 -2,820 Descending Oakland Center
10:37PM 34.7497 -119.4044 132° Southeast 493 567 16,200 -2,640 Descending Oakland Center
10:38PM 34.6628 -119.2886 132° Southeast 472 543 13,500 -2,400 Descending Oakland Center
10:39PM 34.5525 -119.1442 133° Southeast 442 509 11,000 -1,140 Descending Los Angeles Center
10:40PM 34.4992 -119.0708 131° Southeast 363 418 11,000 -360 Level Los Angeles Center
10:41PM 34.4200 -118.9650 132° Southeast 352 405 10,300 -1,260 Descending Los Angeles Center
10:42PM 34.3564 -118.8828 133° Southeast 334 384 8,500 -1,800 Descending Los Angeles Center
10:43PM 34.2856 -118.8225 145° Southeast 310 357 6,700 -1,260 Descending Los Angeles Center
10:44PM 34.2322 -118.7550 134° Southeast 285 328 6,000 -660 Descending Los Angeles Center
10:45PM 34.1919 -118.6792 123° Southeast 274 315 5,400 -480 Descending Los Angeles Center
10:46PM 34.1500 -118.5667 114° Southeast 275 316 5,000 -420 Descending Southern California TRACON
10:48PM 34.1333 -118.4833 104° East 240 276 4,500 -600 Descending Southern California TRACON
10:49PM 34.1333 -118.4167 90° East 200 230 3,900 -840 Descending Southern California TRACON
10:49PM 34.1300 -118.3686 95° East 214 246 3,000 -1,440 Descending Los Angeles Center
10:50PM 34.1633 -118.3467 29° Northeast 151 174 1,300 -1,020 Descending Los Angeles Center
10:51PM 34.1903 -118.3547 346° North 133 153 1,000 -300 Descending Los Angeles Center